Time;durP1;ratioP1;P1;durP2;ratioP2;P2;SDS_P1;SDS_P2;PMS_P1;PMS_P2;Temp;Humidity;BMP_temperature;BMP_pressure;BME280_temperature;BME280_humidity;BME280_pressure;Samples;Min_cycle;Max_cycle;Signal;HPM_P1;HPM_P2
2022/06/23 00:00:12;;;;;;;;;;;;;;;;;;4952094;28;19925;-57
2022/06/23 00:02:37;;;;;;;;;;;;;;;;;;4943646;28;19962;-60
2022/06/23 00:05:02;;;;;;;;;;;;;;;;;;4945500;28;19977;-58
2022/06/23 00:07:28;;;;;;;;;;;;;;;;;;4953591;28;20000;-60
2022/06/23 00:09:53;;;;;;;;;;;;;;;;;;4949300;28;19932;-61
2022/06/23 00:12:18;;;;;;;;;;;;;;;;;;4938301;28;20005;-61
2022/06/23 00:14:43;;;;;;;;;;;;;;;;;;4947275;28;19923;-60
2022/06/23 00:17:08;;;;;;;;;;;;;;;;;;4959637;28;19922;-60
2022/06/23 00:19:34;;;;;;;;;;;;;;;;;;4942065;28;19950;-60
2022/06/23 00:21:59;;;;;;;;;;;;;;;;;;4958404;28;20615;-60
2022/06/23 00:24:24;;;;;;;;;;;;;;;;;;4949115;28;20611;-59
2022/06/23 00:26:49;;;;;;;;;;;;;;;;;;4943277;28;19926;-60
2022/06/23 00:29:15;;;;;;;;;;;;;;;;;;4958114;28;19978;-60
2022/06/23 00:31:40;;;;;;;;;;;;;;;;;;4951459;28;19925;-60
2022/06/23 00:34:05;;;;;;;;;;;;;;;;;;4960099;28;19929;-60
2022/06/23 00:36:30;;;;;;;;;;;;;;;;;;4964886;28;19930;-59
2022/06/23 00:38:56;;;;;;;;;;;;;;;;;;4948472;28;19929;-59
2022/06/23 00:41:21;;;;;;;;;;;;;;;;;;4944694;28;20634;-60
2022/06/23 00:43:46;;;;;;;;;;;;;;;;;;4962356;28;19978;-60
2022/06/23 00:46:11;;;;;;;;;;;;;;;;;;4958166;28;19918;-60
2022/06/23 00:48:36;;;;;;;;;;;;;;;;;;4964842;28;20621;-59
2022/06/23 00:51:02;;;;;;;;;;;;;;;;;;4945521;28;20459;-60
2022/06/23 00:53:27;;;;;;;;;;;;;;;;;;4937252;28;19918;-60
2022/06/23 00:55:52;;;;;;;;;;;;;;;;;;4952774;28;19922;-60
2022/06/23 00:58:17;;;;;;;;;;;;;;;;;;4946503;28;19929;-60
2022/06/23 01:00:42;;;;;;;;;;;;;;;;;;4962668;28;19922;-60
2022/06/23 01:03:08;;;;;;;;;;;;;;;;;;4949583;28;19944;-60
2022/06/23 01:05:33;;;;;;;;;;;;;;;;;;4945424;28;19922;-59
2022/06/23 01:07:58;;;;;;;;;;;;;;;;;;4962923;28;20006;-60
2022/06/23 01:10:23;;;;;;;;;;;;;;;;;;4957040;28;20450;-60
2022/06/23 01:12:49;;;;;;;;;;;;;;;;;;4965129;28;20041;-61
2022/06/23 01:15:14;;;;;;;;;;;;;;;;;;4945027;28;20359;-60
2022/06/23 01:17:39;;;;;;;;;;;;;;;;;;4943023;28;19922;-59
2022/06/23 01:20:04;;;;;;;;;;;;;;;;;;4950716;28;20329;-60
2022/06/23 01:22:29;;;;;;;;;;;;;;;;;;4950134;28;19918;-61
2022/06/23 01:24:55;;;;;;;;;;;;;;;;;;4955443;28;19918;-59
2022/06/23 01:27:20;;;;;;;;;;;;;;;;;;4945010;28;19926;-59
2022/06/23 01:29:46;;;;;;;;;;;;;;;;;;4946333;28;20021;-59
2022/06/23 01:32:11;;;;;;;;;;;;;;;;;;4952679;28;19918;-60
2022/06/23 01:34:36;;;;;;;;;;;;;;;;;;4945577;28;20383;-59
2022/06/23 01:37:01;;;;;;;;;;;;;;;;;;4963790;28;20310;-58
2022/06/23 01:39:26;;;;;;;;;;;;;;;;;;4942629;28;19918;-59
2022/06/23 01:41:53;;;;;;;;;;;;;;;;;;4943378;28;20326;-58
2022/06/23 01:44:19;;;;;;;;;;;;;;;;;;4949518;28;20350;-58
2022/06/23 01:46:44;;;;;;;;;;;;;;;;;;4944758;28;19973;-58
2022/06/23 01:49:09;;;;;;;;;;;;;;;;;;4951772;28;19922;-58
2022/06/23 01:51:34;;;;;;;;;;;;;;;;;;4944142;28;20538;-59
2022/06/23 01:54:00;;;;;;;;;;;;;;;;;;4958762;28;19918;-59
2022/06/23 01:56:26;;;;;;;;;;;;;;;;;;4951531;28;19961;-58
2022/06/23 01:58:51;;;;;;;;;;;;;;;;;;4944573;28;19929;-59
2022/06/23 02:01:17;;;;;;;;;;;;;;;;;;4954376;28;20261;-58
2022/06/23 02:03:42;;;;;;;;;;;;;;;;;;4945833;28;20436;-59
2022/06/23 02:06:07;;;;;;;;;;;;;;;;;;4943868;28;20049;-58
2022/06/23 02:08:32;;;;;;;;;;;;;;;;;;4953554;28;19917;-59
2022/06/23 02:10:58;;;;;;;;;;;;;;;;;;4958349;28;19918;-59
2022/06/23 02:13:23;;;;;;;;;;;;;;;;;;4964854;28;19929;-58
2022/06/23 02:15:49;;;;;;;;;;;;;;;;;;4957365;28;20012;-59
2022/06/23 02:18:14;;;;;;;;;;;;;;;;;;4957438;28;20633;-59
2022/06/23 02:20:40;;;;;;;;;;;;;;;;;;4952108;28;19964;-59
2022/06/23 02:23:06;;;;;;;;;;;;;;;;;;4943974;28;19925;-58
2022/06/23 02:25:31;;;;;;;;;;;;;;;;;;4939542;28;19924;-60
2022/06/23 02:27:56;;;;;;;;;;;;;;;;;;4936079;28;19921;-58
2022/06/23 02:30:22;;;;;;;;;;;;;;;;;;4945725;28;19928;-58
2022/06/23 02:32:47;;;;;;;;;;;;;;;;;;4937227;28;19929;-59
2022/06/23 02:35:12;;;;;;;;;;;;;;;;;;4942077;28;19922;-58
2022/06/23 02:37:38;;;;;;;;;;;;;;;;;;4948202;28;20397;-59
2022/06/23 02:40:03;;;;;;;;;;;;;;;;;;4960950;28;19927;-58
2022/06/23 02:42:28;;;;;;;;;;;;;;;;;;4942305;28;19918;-59
2022/06/23 02:44:53;;;;;;;;;;;;;;;;;;4950684;28;19922;-59
2022/06/23 02:47:18;;;;;;;;;;;;;;;;;;4959056;28;19918;-61
2022/06/23 02:49:44;;;;;;;;;;;;;;;;;;4946934;28;20403;-59
2022/06/23 02:52:09;;;;;;;;;;;;;;;;;;4944306;28;19918;-59
2022/06/23 02:54:34;;;;;;;;;;;;;;;;;;4946198;28;19964;-59
2022/06/23 02:56:59;;;;;;;;;;;;;;;;;;4960789;28;19922;-58
2022/06/23 02:59:25;;;;;;;;;;;;;;;;;;4957371;28;19919;-58
2022/06/23 03:01:50;;;;;;;;;;;;;;;;;;4934200;28;19981;-60
2022/06/23 03:04:16;;;;;;;;;;;;;;;;;;4945186;28;19925;-58
2022/06/23 03:06:41;;;;;;;;;;;;;;;;;;4943195;28;19925;-59
2022/06/23 03:09:06;;;;;;;;;;;;;;;;;;4954559;28;19918;-59
2022/06/23 03:14:15;;;;;;;;;;;;;;;;;;4956139;28;20878;-58
2022/06/23 03:16:40;;;;;;;;;;;;;;;;;;4950218;28;20044;-58
2022/06/23 03:19:06;;;;;;;;;;;;;;;;;;4946671;28;19922;-58
2022/06/23 03:21:31;;;;;;;;;;;;;;;;;;4953994;28;19926;-58
2022/06/23 03:23:56;;;;;;;;;;;;;;;;;;4944601;28;19922;-58
2022/06/23 03:26:22;;;;;;;;;;;;;;;;;;4945034;28;20849;-59
2022/06/23 03:28:47;;;;;;;;;;;;;;;;;;4950850;28;20737;-59
2022/06/23 03:31:12;;;;;;;;;;;;;;;;;;4944235;28;19929;-59
2022/06/23 03:33:38;;;;;;;;;;;;;;;;;;4942149;28;19977;-58
2022/06/23 03:36:03;;;;;;;;;;;;;;;;;;4946415;28;20020;-59
2022/06/23 03:41:36;;;;;;;;;;;;;;;;;;4949380;28;20565;-58
2022/06/23 03:43:57;;;;;;;;;;;;;;;;;;4947188;28;20454;-59
2022/06/23 03:46:22;;;;;;;;;;;;;;;;;;4948877;28;19918;-58
2022/06/23 03:48:48;;;;;;;;;;;;;;;;;;4958684;28;19918;-58
2022/06/23 03:51:13;;;;;;;;;;;;;;;;;;4949682;28;19921;-59
2022/06/23 03:53:38;;;;;;;;;;;;;;;;;;4954436;28;20374;-59
2022/06/23 03:56:03;;;;;;;;;;;;;;;;;;4949025;28;20358;-59
2022/06/23 03:58:28;;;;;;;;;;;;;;;;;;4947109;28;19927;-58
2022/06/23 04:00:54;;;;;;;;;;;;;;;;;;4956749;28;19922;-58
2022/06/23 04:03:19;;;;;;;;;;;;;;;;;;4933114;28;20371;-58
2022/06/23 04:05:44;;;;;;;;;;;;;;;;;;4957440;28;20414;-58
2022/06/23 04:08:09;;;;;;;;;;;;;;;;;;4945967;28;19926;-58
2022/06/23 04:10:35;;;;;;;;;;;;;;;;;;4945700;28;19930;-59
2022/06/23 04:13:00;;;;;;;;;;;;;;;;;;4952371;28;20009;-59
2022/06/23 04:15:25;;;;;;;;;;;;;;;;;;4946812;28;19930;-59
2022/06/23 04:17:50;;;;;;;;;;;;;;;;;;4954145;28;19997;-59
2022/06/23 04:20:15;;;;;;;;;;;;;;;;;;4944582;28;20297;-58
2022/06/23 04:22:41;;;;;;;;;;;;;;;;;;4950338;28;19918;-58
2022/06/23 04:25:06;;;;;;;;;;;;;;;;;;4953505;28;19965;-58
2022/06/23 04:27:31;;;;;;;;;;;;;;;;;;4948700;28;19919;-60
2022/06/23 04:29:56;;;;;;;;;;;;;;;;;;4952417;28;19930;-58
2022/06/23 04:32:22;;;;;;;;;;;;;;;;;;4960810;28;19934;-58
2022/06/23 04:34:48;;;;;;;;;;;;;;;;;;4947535;28;20018;-58
2022/06/23 04:37:13;;;;;;;;;;;;;;;;;;4951831;28;20772;-58
2022/06/23 04:39:38;;;;;;;;;;;;;;;;;;4943127;28;19966;-58
2022/06/23 04:42:03;;;;;;;;;;;;;;;;;;4953055;28;20065;-59
2022/06/23 04:44:28;;;;;;;;;;;;;;;;;;4945482;28;19918;-58
2022/06/23 04:46:54;;;;;;;;;;;;;;;;;;4946106;28;20576;-59
2022/06/23 04:49:19;;;;;;;;;;;;;;;;;;4937141;28;19918;-58
2022/06/23 04:51:44;;;;;;;;;;;;;;;;;;4958689;28;20029;-59
2022/06/23 04:54:10;;;;;;;;;;;;;;;;;;4953584;28;19918;-58
2022/06/23 04:56:35;;;;;;;;;;;;;;;;;;4947018;28;19930;-58
2022/06/23 04:59:00;;;;;;;;;;;;;;;;;;4945576;28;19918;-58
2022/06/23 05:01:25;;;;;;;;;;;;;;;;;;4963536;28;19976;-58
2022/06/23 05:03:50;;;;;;;;;;;;;;;;;;4955946;28;19922;-58
2022/06/23 05:06:16;;;;;;;;;;;;;;;;;;4954771;28;19918;-57
2022/06/23 05:08:41;;;;;;;;;;;;;;;;;;4946429;28;20458;-57
2022/06/23 05:11:06;;;;;;;;;;;;;;;;;;4945345;28;20484;-59
2022/06/23 05:13:32;;;;;;;;;;;;;;;;;;4951440;28;19953;-58
2022/06/23 05:15:57;;;;;;;;;;;;;;;;;;4946889;28;19937;-58
2022/06/23 05:18:22;;;;;;;;;;;;;;;;;;4952594;28;19922;-60
2022/06/23 05:20:47;;;;;;;;;;;;;;;;;;4951033;28;19929;-58
2022/06/23 05:23:13;;;;;;;;;;;;;;;;;;4945645;28;19926;-58
2022/06/23 05:25:38;;;;;;;;;;;;;;;;;;4952589;28;19918;-58
2022/06/23 05:28:03;;;;;;;;;;;;;;;;;;4947646;28;20311;-58
2022/06/23 05:30:28;;;;;;;;;;;;;;;;;;4952310;28;19922;-58
2022/06/23 05:32:54;;;;;;;;;;;;;;;;;;4943149;28;19993;-58
2022/06/23 05:35:19;;;;;;;;;;;;;;;;;;4959515;28;20395;-58
2022/06/23 05:37:44;;;;;;;;;;;;;;;;;;4957060;28;19945;-58
2022/06/23 05:40:09;;;;;;;;;;;;;;;;;;4939218;28;19930;-58
2022/06/23 05:42:35;;;;;;;;;;;;;;;;;;4950728;28;19926;-58
2022/06/23 05:45:00;;;;;;;;;;;;;;;;;;4964276;28;19918;-58
2022/06/23 05:47:25;;;;;;;;;;;;;;;;;;4965873;28;19965;-59
2022/06/23 05:49:50;;;;;;;;;;;;;;;;;;4953143;28;19986;-58
2022/06/23 05:52:16;;;;;;;;;;;;;;;;;;4967329;28;19958;-58
2022/06/23 05:54:41;;;;;;;;;;;;;;;;;;4951499;28;20392;-59
2022/06/23 05:57:06;;;;;;;;;;;;;;;;;;4949485;28;20446;-59
2022/06/23 05:59:31;;;;;;;;;;;;;;;;;;4948447;28;20566;-59
2022/06/23 06:01:57;;;;;;;;;;;;;;;;;;4948909;28;20280;-59
2022/06/23 06:04:22;;;;;;;;;;;;;;;;;;4966338;28;19973;-58
2022/06/23 06:06:47;;;;;;;;;;;;;;;;;;4952036;28;19914;-58
2022/06/23 06:11:56;;;;;;;;;;;;;;;;;;4969060;28;19929;-59
2022/06/23 06:14:22;;;;;;;;;;;;;;;;;;4951075;28;19918;-60
2022/06/23 06:16:47;;;;;;;;;;;;;;;;;;4947448;28;19919;-59
2022/06/23 06:19:12;;;;;;;;;;;;;;;;;;4944851;28;19922;-59
2022/06/23 06:21:37;;;;;;;;;;;;;;;;;;4967429;28;19974;-60
2022/06/23 06:24:02;;;;;;;;;;;;;;;;;;4948799;28;19918;-59
2022/06/23 06:26:29;;;;;;;;;;;;;;;;;;4950015;28;20057;-59
2022/06/23 06:28:54;;;;;;;;;;;;;;;;;;4953036;28;20009;-60
2022/06/23 06:31:22;;;;;;;;;;;;;;;;;;4961605;28;19917;-58
2022/06/23 06:33:47;;;;;;;;;;;;;;;;;;4950658;28;20731;-59
2022/06/23 06:36:12;;;;;;;;;;;;;;;;;;4954861;28;19923;-59
2022/06/23 06:38:38;;;;;;;;;;;;;;;;;;4948382;28;19985;-60
2022/06/23 06:41:03;;;;;;;;;;;;;;;;;;4948506;28;19968;-58
2022/06/23 06:43:29;;;;;;;;;;;;;;;;;;4954511;28;20017;-59
2022/06/23 06:45:54;;;;;;;;;;;;;;;;;;4950717;28;19923;-59
2022/06/23 06:48:19;;;;;;;;;;;;;;;;;;4947530;28;19914;-59
2022/06/23 06:50:45;;;;;;;;;;;;;;;;;;4957227;28;19965;-59
2022/06/23 06:53:10;;;;;;;;;;;;;;;;;;4950709;28;20037;-60
2022/06/23 06:55:35;;;;;;;;;;;;;;;;;;4961581;28;19929;-59
2022/06/23 06:58:00;;;;;;;;;;;;;;;;;;4951529;28;19944;-60
2022/06/23 07:00:26;;;;;;;;;;;;;;;;;;4959139;28;19918;-59
2022/06/23 07:02:51;;;;;;;;;;;;;;;;;;4948809;28;19925;-60
2022/06/23 07:05:16;;;;;;;;;;;;;;;;;;4957256;28;19957;-59
2022/06/23 07:07:41;;;;;;;;;;;;;;;;;;4956659;28;19942;-60
2022/06/23 07:10:06;;;;;;;;;;;;;;;;;;4951775;28;19966;-59
2022/06/23 07:12:32;;;;;;;;;;;;;;;;;;4952785;28;20421;-59
2022/06/23 07:14:57;;;;;;;;;;;;;;;;;;4959015;28;19922;-59
2022/06/23 07:17:22;;;;;;;;;;;;;;;;;;4979633;28;19922;-59
2022/06/23 07:19:47;;;;;;;;;;;;;;;;;;4961660;28;19918;-59
2022/06/23 07:22:13;;;;;;;;;;;;;;;;;;4973680;28;19915;-58
2022/06/23 07:24:38;;;;;;;;;;;;;;;;;;4952721;28;20001;-58
2022/06/23 07:27:03;;;;;;;;;;;;;;;;;;4950570;28;19919;-59
2022/06/23 07:29:28;;;;;;;;;;;;;;;;;;4956289;28;19946;-60
2022/06/23 07:31:54;;;;;;;;;;;;;;;;;;4977157;28;19918;-59
2022/06/23 07:34:19;;;;;;;;;;;;;;;;;;4955678;28;19914;-59
2022/06/23 07:36:44;;;;;;;;;;;;;;;;;;4961120;28;20006;-59
2022/06/23 07:39:09;;;;;;;;;;;;;;;;;;4969684;28;19918;-60
2022/06/23 07:41:35;;;;;;;;;;;;;;;;;;4949953;28;20150;-60
2022/06/23 07:44:00;;;;;;;;;;;;;;;;;;4953505;28;20204;-60
2022/06/23 07:46:25;;;;;;;;;;;;;;;;;;4957429;28;19937;-60
2022/06/23 07:48:50;;;;;;;;;;;;;;;;;;4952681;28;19921;-60
2022/06/23 07:51:16;;;;;;;;;;;;;;;;;;4968641;28;19914;-61
2022/06/23 07:53:41;;;;;;;;;;;;;;;;;;4957221;28;19925;-60
2022/06/23 07:56:06;;;;;;;;;;;;;;;;;;4951391;28;19918;-61
2022/06/23 07:58:32;;;;;;;;;;;;;;;;;;4954851;28;19929;-60
2022/06/23 08:00:57;;;;;;;;;;;;;;;;;;4957430;28;19919;-58
2022/06/23 08:03:22;;;;;;;;;;;;;;;;;;4955706;28;19924;-60
2022/06/23 08:05:48;;;;;;;;;;;;;;;;;;4949689;28;19925;-57
2022/06/23 08:08:14;;;;;;;;;;;;;;;;;;4956707;28;19926;-59
2022/06/23 08:10:39;;;;;;;;;;;;;;;;;;4952669;28;19937;-60
2022/06/23 08:13:04;;;;;;;;;;;;;;;;;;4949255;28;19922;-59
2022/06/23 08:18:14;;;;;;;;;;;;;;;;;;4954931;28;20601;-59
2022/06/23 08:20:40;;;;;;;;;;;;;;;;;;4948567;28;19925;-59
2022/06/23 08:23:05;;;;;;;;;;;;;;;;;;4953564;28;19914;-60
2022/06/23 08:25:30;;;;;;;;;;;;;;;;;;4954356;28;20455;-59
2022/06/23 08:27:55;;;;;;;;;;;;;;;;;;4963653;28;20367;-60
2022/06/23 08:30:20;;;;;;;;;;;;;;;;;;4952427;28;20347;-60
2022/06/23 08:32:46;;;;;;;;;;;;;;;;;;4956298;28;19919;-60
2022/06/23 08:35:11;;;;;;;;;;;;;;;;;;4949558;28;19976;-59
2022/06/23 08:37:36;;;;;;;;;;;;;;;;;;4951060;28;19977;-59
2022/06/23 08:40:03;;;;;;;;;;;;;;;;;;4955018;28;19914;-59
2022/06/23 08:42:28;;;;;;;;;;;;;;;;;;4952448;28;19997;-59
2022/06/23 08:44:53;;;;;;;;;;;;;;;;;;4949347;28;19930;-61
2022/06/23 08:47:18;;;;;;;;;;;;;;;;;;4956037;28;19924;-60
2022/06/23 08:49:44;;;;;;;;;;;;;;;;;;4951362;28;20021;-60
2022/06/23 08:52:09;;;;;;;;;;;;;;;;;;4949044;28;19961;-60
2022/06/23 08:54:34;;;;;;;;;;;;;;;;;;4954927;28;19922;-60
2022/06/23 08:57:00;;;;;;;;;;;;;;;;;;4954180;28;19923;-60
2022/06/23 08:59:25;;;;;;;;;;;;;;;;;;4948190;28;19973;-59
2022/06/23 09:01:51;;;;;;;;;;;;;;;;;;4953537;28;19918;-60
2022/06/23 09:04:16;;;;;;;;;;;;;;;;;;4953916;28;20307;-60
2022/06/23 09:06:41;;;;;;;;;;;;;;;;;;4948577;28;19935;-60
2022/06/23 09:09:06;;;;;;;;;;;;;;;;;;4946165;28;19989;-60
2022/06/23 09:11:32;;;;;;;;;;;;;;;;;;4957505;28;20314;-60
2022/06/23 09:13:57;;;;;;;;;;;;;;;;;;4963937;28;19934;-60
2022/06/23 09:16:22;;;;;;;;;;;;;;;;;;4953378;28;19922;-60
2022/06/23 09:18:47;;;;;;;;;;;;;;;;;;4952962;28;19919;-60
2022/06/23 09:21:12;;;;;;;;;;;;;;;;;;4951889;28;20086;-60
2022/06/23 09:23:38;;;;;;;;;;;;;;;;;;4953561;28;20621;-60
2022/06/23 09:26:03;;;;;;;;;;;;;;;;;;4955065;28;20320;-60
2022/06/23 09:28:28;;;;;;;;;;;;;;;;;;4957626;28;20296;-60
2022/06/23 09:30:53;;;;;;;;;;;;;;;;;;4950686;28;19926;-60
2022/06/23 09:33:19;;;;;;;;;;;;;;;;;;4957533;28;19914;-60
2022/06/23 09:35:44;;;;;;;;;;;;;;;;;;4952253;28;19966;-60
2022/06/23 09:38:09;;;;;;;;;;;;;;;;;;4962300;28;20044;-59
2022/06/23 09:40:34;;;;;;;;;;;;;;;;;;4952215;28;19972;-60
2022/06/23 09:42:59;;;;;;;;;;;;;;;;;;4958400;28;19937;-60
2022/06/23 09:45:25;;;;;;;;;;;;;;;;;;4956970;28;19929;-60
2022/06/23 09:47:50;;;;;;;;;;;;;;;;;;4960188;28;19914;-60
2022/06/23 09:50:15;;;;;;;;;;;;;;;;;;4954867;28;20287;-60
2022/06/23 09:52:41;;;;;;;;;;;;;;;;;;4938278;29;19929;-60
2022/06/23 09:55:06;;;;;;;;;;;;;;;;;;4950327;28;19914;-60
2022/06/23 09:57:31;;;;;;;;;;;;;;;;;;4969904;28;20296;-61
2022/06/23 09:59:56;;;;;;;;;;;;;;;;;;4945668;28;19917;-60
2022/06/23 10:02:22;;;;;;;;;;;;;;;;;;4952000;28;20013;-60
2022/06/23 10:04:47;;;;;;;;;;;;;;;;;;4950613;28;20057;-60
2022/06/23 10:07:12;;;;;;;;;;;;;;;;;;4952592;28;20041;-60
2022/06/23 10:09:38;;;;;;;;;;;;;;;;;;4940287;28;19936;-60
2022/06/23 10:12:03;;;;;;;;;;;;;;;;;;4950390;28;20221;-62
2022/06/23 10:14:28;;;;;;;;;;;;;;;;;;4951823;28;20418;-60
2022/06/23 10:16:53;;;;;;;;;;;;;;;;;;4951460;28;19922;-60
2022/06/23 10:19:19;;;;;;;;;;;;;;;;;;4952794;28;20140;-60
2022/06/23 10:21:44;;;;;;;;;;;;;;;;;;4951735;28;19919;-60
2022/06/23 10:24:11;;;;;;;;;;;;;;;;;;4968174;28;20402;-60
2022/06/23 10:26:36;;;;;;;;;;;;;;;;;;4955149;28;19918;-60
2022/06/23 10:29:01;;;;;;;;;;;;;;;;;;4955613;28;19980;-61
2022/06/23 10:31:27;;;;;;;;;;;;;;;;;;4951081;28;19922;-61
2022/06/23 10:33:52;;;;;;;;;;;;;;;;;;4949297;28;19918;-60
2022/06/23 10:36:17;;;;;;;;;;;;;;;;;;4955246;28;19971;-61
2022/06/23 10:38:42;;;;;;;;;;;;;;;;;;4948599;28;19923;-61
2022/06/23 10:41:07;;;;;;;;;;;;;;;;;;4947984;28;19925;-61
2022/06/23 10:43:33;;;;;;;;;;;;;;;;;;4956746;28;20392;-63
2022/06/23 10:45:58;;;;;;;;;;;;;;;;;;4942815;28;19937;-60
2022/06/23 10:48:23;;;;;;;;;;;;;;;;;;4965364;28;19970;-61
2022/06/23 10:50:48;;;;;;;;;;;;;;;;;;4956019;28;20004;-61
2022/06/23 10:53:16;;;;;;;;;;;;;;;;;;4969109;28;19918;-61
2022/06/23 10:55:41;;;;;;;;;;;;;;;;;;4956750;28;19976;-60
2022/06/23 10:58:06;;;;;;;;;;;;;;;;;;4955508;28;19926;-61
2022/06/23 11:00:32;;;;;;;;;;;;;;;;;;4973662;28;20025;-62
2022/06/23 11:02:57;;;;;;;;;;;;;;;;;;4937970;28;19922;-60
2022/06/23 11:05:22;;;;;;;;;;;;;;;;;;4954425;28;19918;-61
2022/06/23 11:07:47;;;;;;;;;;;;;;;;;;4955665;28;20053;-61
2022/06/23 11:10:12;;;;;;;;;;;;;;;;;;4951306;28;19968;-61
2022/06/23 11:12:38;;;;;;;;;;;;;;;;;;4951979;28;20264;-60
2022/06/23 11:15:03;;;;;;;;;;;;;;;;;;4973000;28;19918;-60
2022/06/23 11:17:29;;;;;;;;;;;;;;;;;;4952091;28;19922;-59
2022/06/23 11:19:54;;;;;;;;;;;;;;;;;;4951492;28;19914;-60
2022/06/23 11:22:20;;;;;;;;;;;;;;;;;;4956781;28;20652;-60
2022/06/23 11:24:45;;;;;;;;;;;;;;;;;;4967442;28;20439;-59
2022/06/23 11:27:10;;;;;;;;;;;;;;;;;;4950357;28;19925;-60
2022/06/23 11:29:36;;;;;;;;;;;;;;;;;;4956875;28;19922;-60
2022/06/23 11:32:01;;;;;;;;;;;;;;;;;;4954602;28;19911;-60
2022/06/23 11:34:26;;;;;;;;;;;;;;;;;;4949558;28;20422;-60
2022/06/23 11:36:51;;;;;;;;;;;;;;;;;;4969346;28;20320;-60
2022/06/23 11:39:17;;;;;;;;;;;;;;;;;;4956920;28;19931;-60
2022/06/23 11:41:42;;;;;;;;;;;;;;;;;;4949811;28;19998;-60
2022/06/23 11:44:07;;;;;;;;;;;;;;;;;;4955731;28;19921;-61
2022/06/23 11:46:32;;;;;;;;;;;;;;;;;;4971246;28;19918;-60
2022/06/23 11:48:57;;;;;;;;;;;;;;;;;;4949782;28;19918;-60
2022/06/23 11:51:23;;;;;;;;;;;;;;;;;;4952100;28;19922;-60
2022/06/23 11:53:48;;;;;;;;;;;;;;;;;;4957023;28;20002;-61
2022/06/23 11:56:13;;;;;;;;;;;;;;;;;;4954644;28;19933;-61
2022/06/23 11:58:39;;;;;;;;;;;;;;;;;;4948437;28;19926;-61
2022/06/23 12:01:04;;;;;;;;;;;;;;;;;;4959375;28;19918;-60
2022/06/23 12:03:29;;;;;;;;;;;;;;;;;;4952332;28;19925;-60
2022/06/23 12:05:55;;;;;;;;;;;;;;;;;;4964093;28;19922;-60
2022/06/23 12:08:20;;;;;;;;;;;;;;;;;;4954570;28;20310;-61
2022/06/23 12:10:45;;;;;;;;;;;;;;;;;;4961099;28;20084;-60
2022/06/23 12:13:11;;;;;;;;;;;;;;;;;;4967033;28;19918;-61
2022/06/23 12:15:36;;;;;;;;;;;;;;;;;;4960433;28;20307;-60
2022/06/23 12:18:01;;;;;;;;;;;;;;;;;;4954146;28;20386;-60
2022/06/23 12:20:26;;;;;;;;;;;;;;;;;;4948586;28;20053;-60
2022/06/23 12:22:52;;;;;;;;;;;;;;;;;;4940733;28;19918;-61
2022/06/23 12:25:17;;;;;;;;;;;;;;;;;;4944290;28;19925;-61
2022/06/23 12:27:42;;;;;;;;;;;;;;;;;;4965033;28;19925;-61
2022/06/23 12:30:07;;;;;;;;;;;;;;;;;;4905713;28;20403;-60
2022/06/23 12:32:32;;;;;;;;;;;;;;;;;;4920202;28;19945;-61
2022/06/23 12:34:58;;;;;;;;;;;;;;;;;;4956006;28;20640;-61
2022/06/23 12:37:24;;;;;;;;;;;;;;;;;;4955692;28;19980;-62
2022/06/23 12:39:49;;;;;;;;;;;;;;;;;;4965509;28;20338;-61
2022/06/23 12:42:15;;;;;;;;;;;;;;;;;;4954402;28;19918;-61
2022/06/23 12:44:40;;;;;;;;;;;;;;;;;;4946021;28;20284;-60
2022/06/23 12:47:05;;;;;;;;;;;;;;;;;;4934183;28;19937;-61
2022/06/23 12:49:30;;;;;;;;;;;;;;;;;;4953151;28;20323;-61
2022/06/23 12:51:56;;;;;;;;;;;;;;;;;;4949184;28;19918;-61
2022/06/23 12:54:21;;;;;;;;;;;;;;;;;;4955965;28;19918;-60
2022/06/23 12:56:46;;;;;;;;;;;;;;;;;;4948903;28;19922;-60
2022/06/23 12:59:11;;;;;;;;;;;;;;;;;;4949572;28;19997;-61
2022/06/23 13:01:38;;;;;;;;;;;;;;;;;;4955852;28;20336;-61
2022/06/23 13:04:03;;;;;;;;;;;;;;;;;;4965193;28;19918;-61
2022/06/23 13:06:29;;;;;;;;;;;;;;;;;;4952768;28;20339;-61
2022/06/23 13:08:54;;;;;;;;;;;;;;;;;;4946004;28;19918;-60
2022/06/23 13:11:20;;;;;;;;;;;;;;;;;;4956242;28;20502;-61
2022/06/23 13:13:45;;;;;;;;;;;;;;;;;;4972700;28;19924;-60
2022/06/23 13:16:10;;;;;;;;;;;;;;;;;;4947571;28;20046;-61
2022/06/23 13:18:35;;;;;;;;;;;;;;;;;;4956809;28;19953;-61
2022/06/23 13:21:00;;;;;;;;;;;;;;;;;;4954993;28;20030;-62
2022/06/23 13:23:28;;;;;;;;;;;;;;;;;;4950265;28;20397;-61
2022/06/23 13:25:53;;;;;;;;;;;;;;;;;;4947764;28;19954;-60
2022/06/23 13:28:18;;;;;;;;;;;;;;;;;;4946233;28;20113;-61
2022/06/23 13:30:43;;;;;;;;;;;;;;;;;;4972758;28;19923;-62
2022/06/23 13:33:09;;;;;;;;;;;;;;;;;;4960009;28;19972;-61
2022/06/23 13:35:35;;;;;;;;;;;;;;;;;;4955618;28;19965;-62
2022/06/23 13:38:00;;;;;;;;;;;;;;;;;;4972790;28;19981;-62
2022/06/23 13:40:25;;;;;;;;;;;;;;;;;;4953000;28;19922;-61
2022/06/23 13:42:51;;;;;;;;;;;;;;;;;;4943858;28;20322;-60
2022/06/23 13:45:16;;;;;;;;;;;;;;;;;;4951577;28;20358;-61
2022/06/23 13:47:41;;;;;;;;;;;;;;;;;;4953137;28;19914;-61
2022/06/23 13:50:06;;;;;;;;;;;;;;;;;;4953620;28;20021;-61
2022/06/23 13:52:32;;;;;;;;;;;;;;;;;;4951821;28;19918;-61
2022/06/23 13:54:57;;;;;;;;;;;;;;;;;;4957002;28;19944;-61
2022/06/23 13:57:22;;;;;;;;;;;;;;;;;;4954485;28;19933;-61
2022/06/23 13:59:47;;;;;;;;;;;;;;;;;;4935750;28;20001;-61
2022/06/23 14:02:14;;;;;;;;;;;;;;;;;;4947751;28;19918;-62
2022/06/23 14:04:40;;;;;;;;;;;;;;;;;;4950864;28;20053;-61
2022/06/23 14:07:05;;;;;;;;;;;;;;;;;;4967163;28;20029;-62
2022/06/23 14:09:30;;;;;;;;;;;;;;;;;;4945490;28;19934;-62
2022/06/23 14:11:55;;;;;;;;;;;;;;;;;;4937653;28;19938;-61
2022/06/23 14:14:21;;;;;;;;;;;;;;;;;;4951841;28;19922;-61
2022/06/23 14:16:46;;;;;;;;;;;;;;;;;;4954323;28;19926;-62
2022/06/23 14:19:11;;;;;;;;;;;;;;;;;;4934817;28;20042;-61
2022/06/23 14:21:36;;;;;;;;;;;;;;;;;;4959536;28;19973;-62
2022/06/23 14:24:01;;;;;;;;;;;;;;;;;;4962219;28;19918;-62
2022/06/23 14:26:27;;;;;;;;;;;;;;;;;;4951018;28;19925;-62
2022/06/23 14:28:52;;;;;;;;;;;;;;;;;;4953297;28;19974;-62
2022/06/23 14:31:18;;;;;;;;;;;;;;;;;;4952919;28;19925;-63
2022/06/23 14:33:43;;;;;;;;;;;;;;;;;;4952743;28;19993;-63
2022/06/23 14:36:08;;;;;;;;;;;;;;;;;;4953073;28;20009;-64
2022/06/23 14:38:34;;;;;;;;;;;;;;;;;;4961742;28;19929;-62
2022/06/23 14:40:59;;;;;;;;;;;;;;;;;;4953683;28;19922;-62
2022/06/23 14:43:24;;;;;;;;;;;;;;;;;;4952332;28;20274;-62
2022/06/23 14:45:49;;;;;;;;;;;;;;;;;;4955777;28;19988;-62
2022/06/23 14:48:15;;;;;;;;;;;;;;;;;;4962337;28;20438;-62
2022/06/23 14:50:41;;;;;;;;;;;;;;;;;;4952483;28;19974;-62
2022/06/23 14:53:06;;;;;;;;;;;;;;;;;;4964865;28;20310;-63
2022/06/23 14:55:31;;;;;;;;;;;;;;;;;;4953931;28;19981;-63
2022/06/23 14:57:58;;;;;;;;;;;;;;;;;;4963953;28;19978;-63
2022/06/23 15:00:23;;;;;;;;;;;;;;;;;;4963830;28;19972;-63
2022/06/23 15:02:48;;;;;;;;;;;;;;;;;;4943186;28;20040;-63
2022/06/23 15:05:13;;;;;;;;;;;;;;;;;;4949855;28;20032;-64
2022/06/23 15:07:38;;;;;;;;;;;;;;;;;;4954116;28;19957;-63
2022/06/23 15:10:04;;;;;;;;;;;;;;;;;;4950765;28;20432;-63
2022/06/23 15:12:29;;;;;;;;;;;;;;;;;;4952495;28;19919;-63
2022/06/23 15:14:54;;;;;;;;;;;;;;;;;;4951753;28;20594;-63
2022/06/23 15:17:20;;;;;;;;;;;;;;;;;;4953705;28;20533;-62
2022/06/23 15:19:45;;;;;;;;;;;;;;;;;;4952164;28;19922;-62
2022/06/23 15:24:54;;;;;;;;;;;;;;;;;;4949767;28;19918;-62
2022/06/23 15:27:19;;;;;;;;;;;;;;;;;;4948689;28;19993;-63
2022/06/23 15:29:45;;;;;;;;;;;;;;;;;;4953861;28;20588;-61
2022/06/23 15:32:10;;;;;;;;;;;;;;;;;;4961729;28;19914;-62
2022/06/23 15:34:35;;;;;;;;;;;;;;;;;;4954488;28;19918;-62
2022/06/23 15:37:00;;;;;;;;;;;;;;;;;;4954340;28;19929;-63
2022/06/23 15:39:26;;;;;;;;;;;;;;;;;;4958158;28;19934;-62
2022/06/23 15:41:55;;;;;;;;;;;;;;;;;;4944235;28;19926;-63
2022/06/23 15:44:20;;;;;;;;;;;;;;;;;;4955646;28;19918;-62
2022/06/23 15:46:47;;;;;;;;;;;;;;;;;;4939178;28;19918;-63
2022/06/23 15:49:12;;;;;;;;;;;;;;;;;;4967807;28;19918;-63
2022/06/23 15:51:38;;;;;;;;;;;;;;;;;;4956765;28;19918;-63
2022/06/23 15:54:03;;;;;;;;;;;;;;;;;;4954966;28;19925;-65
2022/06/23 15:56:28;;;;;;;;;;;;;;;;;;4953687;28;19922;-62
2022/06/23 15:58:53;;;;;;;;;;;;;;;;;;4956466;28;19926;-62
2022/06/23 16:01:19;;;;;;;;;;;;;;;;;;4954597;28;19922;-62
2022/06/23 16:03:46;;;;;;;;;;;;;;;;;;4954289;28;20295;-61
2022/06/23 16:06:11;;;;;;;;;;;;;;;;;;4955149;28;20618;-61
2022/06/23 16:08:36;;;;;;;;;;;;;;;;;;4971592;28;19929;-63
2022/06/23 16:11:01;;;;;;;;;;;;;;;;;;4961603;28;20407;-62
2022/06/23 16:13:26;;;;;;;;;;;;;;;;;;4946132;28;19961;-63
2022/06/23 16:15:52;;;;;;;;;;;;;;;;;;4954267;28;20292;-61
2022/06/23 16:18:17;;;;;;;;;;;;;;;;;;4950821;28;20402;-61
2022/06/23 16:20:45;;;;;;;;;;;;;;;;;;4958868;28;20662;-62
2022/06/23 16:23:10;;;;;;;;;;;;;;;;;;4960569;28;19987;-62
2022/06/23 16:25:36;;;;;;;;;;;;;;;;;;4944573;28;20719;-62
2022/06/23 16:28:01;;;;;;;;;;;;;;;;;;4959367;28;20426;-63
2022/06/23 16:30:26;;;;;;;;;;;;;;;;;;4949394;28;20077;-62
2022/06/23 16:32:51;;;;;;;;;;;;;;;;;;4948521;28;19996;-62
2022/06/23 16:35:16;;;;;;;;;;;;;;;;;;4958370;28;19933;-62
2022/06/23 16:37:42;;;;;;;;;;;;;;;;;;4947061;28;19925;-63
2022/06/23 16:40:07;;;;;;;;;;;;;;;;;;4955965;28;19926;-62
2022/06/23 16:42:33;;;;;;;;;;;;;;;;;;4948331;28;20000;-62
2022/06/23 16:44:59;;;;;;;;;;;;;;;;;;4960046;28;20282;-62